x

Shumagin Islands - 85nm South Of Sand Point, Ak (46075) Wave Buoy

12:50am - Sat 5th Sep 2015 All times are UTC.

  • Sig Wave height 5.6ft
  • Peak Period 13s
  • Average Period 6s
  • Wind
    9mph, 11mph gusts
  • Sea Temp 56°f
  • 空気 Temp 55°f
  • Sea Pressure 1016.6mb

More Historic Weather Station data

Upgrade to MSW Pro to gain access to the past 30 days of data for over 8000 Wavebouys and Weather Stations around the globe.

Join Pro

Comparision Forecast

View Surf forecast
   
Sat 09/05 12:50am 5.5ft 13s 6s 9 11 mph 1016.6mb 56f 55f
Fri 09/04 11:50pm 6ft 14s 7s 13 18 mph 1017.3mb 56f 55f
10:50pm 6ft 14s 6s 13 16 mph 1017.5mb 56f 54f
9:50pm 6ft 14s 7s 16 20 mph 1017.7mb 56f 54f
8:50pm 6ft 14s 7s 9 13 mph 1017.2mb 56f 54f
7:50pm 6ft 7s 6s 11 13 mph 1016.3mb 56f 54f
6:50pm 6ft 8s 6s 13 16 mph 1015.9mb 56f 55f
5:50pm 6ft 7s 6s 13 16 mph 1015.6mb 56f 55f
4:50pm  -   -   -  16 18 mph 1014.9mb 56f 55f
3:50pm 5ft 8s 5s 18 20 mph 1014.3mb 56f 55f
2:50pm 5.5ft 6s 5s 18 22 mph 1014mb 56f 56f
1:50pm 6ft 8s 6s 18 20 mph 1014mb 56f 56f
12:50pm 5.5ft 7s 5s 18 25 mph 1013.8mb 56f 55f
11:50am 6ft 7s 6s 18 20 mph 1013.8mb 56f 56f
10:50am 6ft 7s 6s 16 20 mph 1013.7mb 55f 56f
9:50am 6ft 9s 6s 16 20 mph 1013.8mb 56f 56f
8:50am 6ft 6s 6s 13 18 mph 1013.7mb 55f 56f
7:50am 5.5ft 6s 6s 13 18 mph 1013.8mb 56f 55f
6:50am 5.5ft 7s 6s 11 13 mph 1014mb 55f 55f
5:50am 5.5ft 7s 6s 18 20 mph 1013.5mb 55f 55f
4:50am 6ft 8s 6s 16 18 mph 1013.2mb 55f 55f
3:50am 6ft 8s 5s 20 22 mph 1012.7mb 55f 55f
2:50am 6ft 8s 6s 20 27 mph 1012.4mb 55f 55f
1:50am 6.5ft 8s 5s 20 25 mph 1012.2mb 55f 55f
12:50am 6ft 8s 6s 18 22 mph 1011.9mb 55f 55f
Thu 09/03 11:50pm 7ft 8s 6s 16 20 mph 1011.8mb 54f 56f
10:50pm 7ft 8s 6s 20 25 mph 1011.6mb 54f 55f
9:50pm 7.5ft 8s 6s 16 20 mph 1011.5mb 55f 55f
8:50pm 7ft 7s 6s 18 22 mph 1011.3mb 55f 56f
7:50pm 8ft 7s 6s 16 20 mph 1011.1mb 55f 55f
6:50pm 7ft 8s 6s 16 20 mph 1011mb 55f 55f
5:50pm 7ft 6s 6s 18 22 mph 1010.6mb 55f 55f
4:50pm 7ft 8s 6s 20 25 mph 1009.9mb 55f 55f
3:50pm 7.5ft 8s 6s 20 27 mph 1009.3mb 55f 55f
2:50pm 7.5ft 7s 6s 20 25 mph 1008.8mb 55f 55f
1:50pm 7ft 10s 6s 20 27 mph 1008.3mb 55f 55f
12:50pm 8ft 9s 6s 20 25 mph 1007.9mb 55f 55f
11:50am 9.5ft 8s 6s 25 29 mph 1007mb 55f 55f
10:50am 11ft 9s 6s 20 27 mph 1006.5mb 55f 56f
9:50am 9ft 8s 6s 22 27 mph 1006.2mb 55f 56f
8:50am 9.5ft 8s 6s 25 31 mph 1006.3mb 55f 56f
7:50am 8.5ft 9s 5s 25 29 mph 1006.9mb 55f 57f
6:50am 7ft 8s 5s 25 31 mph 1007.1mb 55f 57f
5:50am 7ft 8s 5s 25 29 mph 1007.6mb 55f 57f
4:50am 6ft 8s 5s 25 29 mph 1008.7mb 55f 57f
3:50am 6ft 9s 5s 22 29 mph 1009.8mb 55f 56f
2:50am 6ft 8s 6s 16 20 mph 1011.1mb 55f 56f
1:50am 6.5ft 8s 6s 13 18 mph 1012.1mb 55f 56f
12:50am 6.5ft 8s 6s 13 16 mph 1012.8mb 55f 56f
Wed 09/02 11:50pm 6.5ft 9s 6s 11 13 mph 1013.5mb 55f 56f
10:50pm 8.5ft 9s 7s 11 16 mph 1013.7mb 55f 56f
9:50pm 9ft 8s 6s 13 16 mph 1014mb 55f 56f
8:50pm 8ft 9s 6s 13 16 mph 1013.8mb 55f 56f
7:50pm 8.5ft 7s 6s 13 16 mph 1013.4mb 55f 56f
6:50pm 9ft 9s 6s 16 18 mph 1013.4mb 55f 56f
5:50pm 8ft 8s 6s 18 20 mph 1013.6mb 55f 56f
4:50pm 7ft 8s 6s 20 22 mph 1013.4mb 55f 56f
3:50pm 6.5ft 8s 5s 22 25 mph 1013.2mb 55f 57f
2:50pm 6ft 6s 5s 20 25 mph 1013.5mb 55f 57f
1:50pm 5ft 6s 5s 20 25 mph 1014.1mb 55f 57f
12:50pm 5ft 6s 5s 20 22 mph 1015mb 55f 57f
11:50am 4.5ft 5s 5s 18 22 mph 1015.4mb 55f 58f
10:50am 4.5ft 6s 5s 16 18 mph 1015.9mb 55f 57f
9:50am 4.5ft 5s 5s 16 18 mph 1016.6mb 55f 57f
8:50am 4.5ft 5s 5s 13 16 mph 1017.1mb 55f 58f
7:50am 4.5ft 8s 5s 13 16 mph 1017.3mb 55f 57f
6:50am 4.5ft 5s 4s 13 18 mph 1017.7mb 55f 57f
5:50am 3.5ft 4s 4s 18 22 mph 1017.6mb 55f 57f
4:50am 4ft 8s 4s 18 20 mph 1017.6mb 55f 57f
3:50am 3.5ft 12s 5s 18 20 mph 1017.7mb 55f 57f
2:50am 3.5ft 9s 4s 18 20 mph 1018.1mb 55f 56f
1:50am 3.5ft 7s 5s 16 18 mph 1018.6mb 55f 56f
12:50am 3.5ft 8s 5s 13 16 mph 1019.1mb 55f 56f
Tue 09/01 11:50pm 3.5ft 8s 5s 11 13 mph 1019.5mb 55f 56f
10:50pm 3.5ft 8s 5s 11 16 mph 1019.8mb 55f 56f
9:50pm 4ft 9s 5s 11 13 mph 1020.1mb 55f 56f
8:50pm 3.5ft 9s 5s 11 13 mph 1020.4mb 55f 56f
7:50pm 3.5ft 8s 5s 11 13 mph 1020.7mb 55f 55f
6:50pm 3.5ft 9s 6s 11 13 mph 1020.7mb 55f 55f
5:50pm 3.5ft 10s 7s 11
mph
1020.6mb 55f 55f
4:50pm 4ft 9s 7s 7 9 mph 1020.5mb 55f 55f
3:50pm 4ft 8s 7s 7 9 mph 1020.4mb 55f 55f
2:50pm 3.5ft 10s 7s 7 9 mph 1020.8mb 55f 55f
1:50pm 3.5ft 10s 7s 4
mph
1020.8mb 55f 54f
12:50pm 3.5ft 8s 7s 4
mph
1020.8mb 55f 54f
11:50am 3.5ft 15s 7s 2 4 mph 1020.9mb 55f 54f
10:50am 3.5ft 8s 7s 2
mph
1021.1mb 55f 54f
9:50am 4ft 7s 7s 4 7 mph 1021.1mb 55f 54f
8:50am 4ft 7s 6s 4
mph
1020.7mb 55f 53f
7:50am 4ft 7s 6s  -  2 mph 1020.6mb 55f 53f
6:50am 4ft 7s 6s 2 4 mph 1020.7mb 55f 53f
5:50am 4ft 7s 6s  -  2 mph 1020.2mb 55f 53f
4:50am 4ft 8s 6s  -  mph 1020mb 55f 53f
3:50am 4ft 8s 6s 4 7 mph 1019.5mb 55f 53f
2:50am 4ft 7s 6s 2
mph
1019.6mb 55f 53f